Time;durP1;ratioP1;P1;durP2;ratioP2;P2;SDS_P1;SDS_P2;PMS_P1;PMS_P2;Temp;Humidity;BMP_temperature;BMP_pressure;BME280_temperature;BME280_humidity;BME280_pressure;Samples;Min_cycle;Max_cycle;Signal;HPM_P1;HPM_P2
2022/09/26 00:01:41;;;;;;;;;;;;;;;15.40;100.00;99144.50;4431124;32;34940;-72
2022/09/26 00:04:28;;;;;;;;;;;;;;;15.58;100.00;99142.97;4425828;32;34987;-72
2022/09/26 00:07:17;;;;;;;;;;;;;;;15.67;100.00;99135.31;4449677;32;34845;-72
2022/09/26 00:10:04;;;;;;;;;;;;;;;15.56;100.00;99134.25;4449557;32;35723;-72
2022/09/26 00:12:49;;;;;;;;;;;;;;;15.17;100.00;99131.28;4450440;32;33951;-71
2022/09/26 00:15:35;;;;;;;;;;;;;;;15.38;100.00;99127.47;4435444;32;34976;-72
2022/09/26 00:18:21;;;;;;;;;;;;;;;15.60;100.00;99132.37;4449758;32;35618;-71
2022/09/26 00:21:12;;;;;;;;;;;;;;;15.67;100.00;99129.78;4436088;32;35005;-72
2022/09/26 00:23:59;;;;;;;;;;;;;;;15.53;100.00;99129.44;4449907;32;34125;-72
2022/09/26 00:26:45;;;;;;;;;;;;;;;15.69;100.00;99133.03;4427182;32;34685;-71
2022/09/26 00:29:31;;;;;;;;;;;;;;;15.61;100.00;99135.94;4448938;32;34204;-72
2022/09/26 00:32:17;;;;;;;;;;;;;;;15.67;100.00;99124.25;4436262;32;34279;-72
2022/09/26 00:35:03;;;;;;;;;;;;;;;15.57;100.00;99111.00;4450267;32;34149;-72
2022/09/26 00:37:49;;;;;;;;;;;;;;;15.62;100.00;99105.19;4449651;32;34993;-72
2022/09/26 00:40:35;;;;;;;;;;;;;;;15.14;100.00;99100.81;4449378;32;35177;-72
2022/09/26 00:43:28;;;;;;;;;;;;;;;15.32;100.00;99098.53;4445657;32;35017;-72
2022/09/26 00:46:37;;;;;;;;;;;;;;;15.62;100.00;99104.41;4447944;32;34146;-72
2022/09/26 00:49:36;;;;;;;;;;;;;;;14.90;100.00;99110.06;4447549;32;35400;-72
2022/09/26 00:52:24;;;;;;;;;;;;;;;14.88;100.00;99101.31;4447475;32;35190;-72
2022/09/26 00:55:12;;;;;;;;;;;;;;;15.28;100.00;99090.97;4449526;32;35335;-71
2022/09/26 00:58:03;;;;;;;;;;;;;;;15.62;100.00;99080.34;4434445;32;34062;-72
2022/09/26 01:00:49;;;;;;;;;;;;;;;15.44;100.00;99081.88;4436237;32;33515;-72
2022/09/26 01:03:35;;;;;;;;;;;;;;;15.36;100.00;99075.38;4438037;32;34725;-71
2022/09/26 01:06:21;;;;;;;;;;;;;;;15.16;100.00;99071.72;4437488;32;34791;-72
2022/09/26 01:09:07;;;;;;;;;;;;;;;15.36;100.00;99074.56;4435152;32;33816;-73
2022/09/26 01:11:54;;;;;;;;;;;;;;;15.48;100.00;99077.22;4437740;32;36017;-72
2022/09/26 01:14:40;;;;;;;;;;;;;;;15.30;100.00;99077.59;4436703;32;34987;-72
2022/09/26 01:17:26;;;;;;;;;;;;;;;15.45;100.00;99077.94;4437200;32;34907;-72
2022/09/26 01:20:21;;;;;;;;;;;;;;;15.35;100.00;99078.50;4449761;32;33637;-72
2022/09/26 01:23:13;;;;;;;;;;;;;;;15.55;100.00;99065.59;4446038;32;34505;-72
2022/09/26 01:26:14;;;;;;;;;;;;;;;15.71;100.00;99071.91;4445918;32;37999;-72
2022/09/26 01:29:22;;;;;;;;;;;;;;;15.40;100.00;99059.72;4447938;32;36199;-72
2022/09/26 01:35:41;;;;;;;;;;;;;;;15.57;100.00;99053.03;4438802;32;35394;-72
2022/09/26 01:38:34;;;;;;;;;;;;;;;15.51;100.00;99052.50;4448249;32;34767;-72
2022/09/26 01:41:20;;;;;;;;;;;;;;;15.66;100.00;99056.37;4434561;32;34918;-72
2022/09/26 01:44:14;;;;;;;;;;;;;;;15.34;100.00;99043.75;4448855;32;36885;-72
2022/09/26 01:47:04;;;;;;;;;;;;;;;15.62;100.00;99052.72;4445673;32;35050;-72
2022/09/26 01:49:53;;;;;;;;;;;;;;;15.45;100.00;99059.44;4447561;32;34688;-72
2022/09/26 01:52:44;;;;;;;;;;;;;;;15.35;100.00;99053.66;4447947;32;34908;-72
2022/09/26 01:55:37;;;;;;;;;;;;;;;15.18;100.00;99058.38;4434809;32;33545;-71
2022/09/26 01:58:26;;;;;;;;;;;;;;;14.71;100.00;99041.78;4435736;32;34909;-71
2022/09/26 02:01:12;;;;;;;;;;;;;;;15.25;100.00;99028.22;4435392;32;34716;-72
2022/09/26 02:04:00;;;;;;;;;;;;;;;15.26;100.00;99021.53;4426215;32;35729;-71
2022/09/26 02:06:47;;;;;;;;;;;;;;;14.98;100.00;99031.84;4437840;32;35107;-73
2022/09/26 02:09:37;;;;;;;;;;;;;;;14.96;100.00;99023.91;4437488;32;34989;-72
2022/09/26 02:12:27;;;;;;;;;;;;;;;15.23;100.00;99030.53;4438589;32;35148;-72
2022/09/26 02:15:13;;;;;;;;;;;;;;;15.14;100.00;99018.87;4437018;32;35442;-72
2022/09/26 02:18:01;;;;;;;;;;;;;;;15.36;100.00;99025.69;4447210;32;34157;-72
2022/09/26 02:20:54;;;;;;;;;;;;;;;15.26;100.00;99021.53;4444520;32;35026;-72
2022/09/26 02:23:40;;;;;;;;;;;;;;;15.43;100.00;99030.59;4436686;32;36094;-72
2022/09/26 02:26:26;;;;;;;;;;;;;;;15.59;100.00;99049.88;4437909;32;35616;-71
2022/09/26 02:29:12;;;;;;;;;;;;;;;15.34;100.00;99052.03;4430445;32;34444;-72
2022/09/26 02:32:04;;;;;;;;;;;;;;;15.60;100.00;99051.50;4436240;32;36361;-73
2022/09/26 02:34:50;;;;;;;;;;;;;;;15.52;100.00;99067.88;4429026;32;36105;-72
2022/09/26 02:37:37;;;;;;;;;;;;;;;15.42;100.00;99062.91;4450154;32;34629;-72
2022/09/26 02:40:23;;;;;;;;;;;;;;;15.36;100.00;99047.78;4451377;32;34266;-72
2022/09/26 02:43:13;;;;;;;;;;;;;;;15.49;100.00;99029.16;4429227;32;34462;-72
2022/09/26 02:45:58;;;;;;;;;;;;;;;15.60;100.00;99024.69;4450216;32;36128;-73
2022/09/26 02:49:04;;;;;;;;;;;;;;;15.66;100.00;99017.72;4447032;32;34477;-74
2022/09/26 02:51:53;;;;;;;;;;;;;;;15.39;100.00;99024.97;4449568;32;33912;-73
2022/09/26 02:54:39;;;;;;;;;;;;;;;15.37;100.00;99013.50;4451676;32;35655;-73
2022/09/26 02:57:25;;;;;;;;;;;;;;;14.44;100.00;99015.81;4448841;32;34749;-73
2022/09/26 03:00:24;;;;;;;;;;;;;;;14.48;100.00;99034.03;4450757;32;35570;-73
2022/09/26 03:03:12;;;;;;;;;;;;;;;14.93;100.00;99026.59;4438236;32;35188;-73
2022/09/26 03:05:58;;;;;;;;;;;;;;;15.24;100.00;99018.31;4437196;32;34970;-73
2022/09/26 03:08:45;;;;;;;;;;;;;;;15.02;100.00;99014.22;4438292;32;35190;-73
2022/09/26 03:11:32;;;;;;;;;;;;;;;15.25;100.00;99008.91;4437640;32;34974;-73
2022/09/26 03:14:19;;;;;;;;;;;;;;;15.13;100.00;99010.94;4437474;32;34963;-73
2022/09/26 03:17:06;;;;;;;;;;;;;;;15.02;100.00;98999.62;4437548;32;34391;-73
2022/09/26 03:19:53;;;;;;;;;;;;;;;15.39;100.00;99013.94;4432701;32;35237;-73
2022/09/26 03:22:38;;;;;;;;;;;;;;;15.06;100.00;99014.31;4438061;32;35638;-73
2022/09/26 03:25:25;;;;;;;;;;;;;;;15.45;100.00;99006.16;4426529;32;34981;-73
2022/09/26 03:28:12;;;;;;;;;;;;;;;14.62;100.00;98990.34;4437821;32;35416;-73
2022/09/26 03:30:58;;;;;;;;;;;;;;;14.90;100.00;98985.94;4449687;32;36159;-73
2022/09/26 03:33:45;;;;;;;;;;;;;;;14.87;100.00;98981.13;4437486;32;34969;-73
2022/09/26 03:36:31;;;;;;;;;;;;;;;14.62;100.00;98978.50;4447748;32;34157;-73
2022/09/26 03:39:18;;;;;;;;;;;;;;;14.82;100.00;98974.69;4449427;32;35541;-73
2022/09/26 03:42:04;;;;;;;;;;;;;;;15.01;100.00;98962.97;4437230;32;36103;-73
2022/09/26 03:44:52;;;;;;;;;;;;;;;15.44;100.00;98969.50;4450971;32;36169;-73
2022/09/26 03:47:40;;;;;;;;;;;;;;;15.22;100.00;98970.16;4450197;32;33843;-73
2022/09/26 03:50:27;;;;;;;;;;;;;;;15.23;100.00;98966.25;4448572;32;34461;-73
2022/09/26 03:53:13;;;;;;;;;;;;;;;15.36;100.00;98958.66;4450027;32;35165;-74
2022/09/26 03:56:03;;;;;;;;;;;;;;;15.30;100.00;98955.38;4435610;32;35899;-74
2022/09/26 03:58:49;;;;;;;;;;;;;;;14.98;100.00;98949.09;4429840;32;34334;-73
2022/09/26 04:01:36;;;;;;;;;;;;;;;15.25;100.00;98941.84;4444297;32;35010;-73
2022/09/26 04:04:22;;;;;;;;;;;;;;;15.02;100.00;98938.94;4426198;32;36692;-73
2022/09/26 04:07:08;;;;;;;;;;;;;;;14.95;100.00;98939.56;4437044;32;34821;-73
2022/09/26 04:09:54;;;;;;;;;;;;;;;15.25;100.00;98934.37;4436628;32;34911;-73
2022/09/26 04:12:40;;;;;;;;;;;;;;;15.60;100.00;98930.00;4442387;32;35539;-73
2022/09/26 04:15:28;;;;;;;;;;;;;;;15.51;100.00;98938.47;4444977;32;35310;-73
2022/09/26 04:18:15;;;;;;;;;;;;;;;15.25;100.00;98931.63;4445823;32;34416;-73
2022/09/26 04:21:02;;;;;;;;;;;;;;;15.45;100.00;98926.13;4447700;32;34971;-73
2022/09/26 04:23:55;;;;;;;;;;;;;;;14.95;100.00;98928.53;4437310;32;34838;-73
2022/09/26 04:26:42;;;;;;;;;;;;;;;15.34;100.00;98931.41;4436369;32;35638;-73
2022/09/26 04:29:28;;;;;;;;;;;;;;;15.08;100.00;98923.69;4425448;32;35575;-73
2022/09/26 04:32:18;;;;;;;;;;;;;;;15.23;100.00;98925.66;4435665;32;34580;-73
2022/09/26 04:35:06;;;;;;;;;;;;;;;14.71;100.00;98924.00;4446788;32;34922;-73
2022/09/26 04:37:52;;;;;;;;;;;;;;;13.98;100.00;98924.41;4431215;32;35049;-73
2022/09/26 04:40:38;;;;;;;;;;;;;;;14.20;100.00;98923.03;4448381;32;35660;-73
2022/09/26 04:43:28;;;;;;;;;;;;;;;13.26;100.00;98917.63;4447990;32;34981;-73
2022/09/26 04:46:19;;;;;;;;;;;;;;;14.11;100.00;98912.16;4447647;32;34418;-73
2022/09/26 04:49:10;;;;;;;;;;;;;;;14.68;100.00;98932.97;4428226;32;36797;-73
2022/09/26 04:51:55;;;;;;;;;;;;;;;14.68;100.00;98927.47;4432531;32;92750;-73
2022/09/26 04:54:43;;;;;;;;;;;;;;;14.25;100.00;98944.81;4450031;32;34761;-73
2022/09/26 04:57:29;;;;;;;;;;;;;;;15.12;100.00;98960.47;4436887;32;35597;-73
2022/09/26 05:00:17;;;;;;;;;;;;;;;15.21;100.00;98944.53;4449020;32;35772;-73
2022/09/26 05:03:04;;;;;;;;;;;;;;;14.92;100.00;98939.50;4438011;32;34874;-73
2022/09/26 05:05:50;;;;;;;;;;;;;;;14.98;100.00;98932.53;4449199;32;33648;-73
2022/09/26 05:08:36;;;;;;;;;;;;;;;15.59;100.00;98940.22;4438018;32;35867;-73
2022/09/26 05:11:23;;;;;;;;;;;;;;;15.65;100.00;98941.56;4449777;32;36543;-73
2022/09/26 05:14:09;;;;;;;;;;;;;;;15.40;100.00;98943.00;4449360;32;35669;-74
2022/09/26 05:16:56;;;;;;;;;;;;;;;15.45;100.00;98939.91;4449846;32;35051;-73
2022/09/26 05:19:41;;;;;;;;;;;;;;;15.52;100.00;98940.87;4449620;32;35564;-73
2022/09/26 05:22:30;;;;;;;;;;;;;;;15.74;100.00;98941.41;4448139;32;35312;-73
2022/09/26 05:28:22;;;;;;;;;;;;;;;15.71;100.00;98939.34;4448340;32;34838;-73
2022/09/26 05:31:08;;;;;;;;;;;;;;;15.37;100.00;98925.19;4449580;32;35902;-73
2022/09/26 05:33:58;;;;;;;;;;;;;;;15.57;100.00;98931.53;4449689;32;34812;-73
2022/09/26 05:36:44;;;;;;;;;;;;;;;15.38;100.00;98934.25;4449062;32;36163;-73
2022/09/26 05:42:35;;;;;;;;;;;;;;;15.63;100.00;98932.84;4449091;32;35021;-74
2022/09/26 05:45:22;;;;;;;;;;;;;;;15.31;100.00;98934.87;4437844;32;35649;-73
2022/09/26 05:48:08;;;;;;;;;;;;;;;14.47;100.00;98943.44;4443114;32;36337;-73
2022/09/26 05:50:55;;;;;;;;;;;;;;;14.55;100.00;98945.28;4433811;32;33825;-73
2022/09/26 05:53:42;;;;;;;;;;;;;;;14.76;100.00;98947.75;4434891;32;35771;-73
2022/09/26 05:56:31;;;;;;;;;;;;;;;14.55;100.00;98948.81;4437627;32;33988;-73
2022/09/26 05:59:17;;;;;;;;;;;;;;;15.04;100.00;98942.16;4449105;32;35344;-73
2022/09/26 06:02:05;;;;;;;;;;;;;;;15.13;100.00;98939.19;4448909;32;34151;-73
2022/09/26 06:04:52;;;;;;;;;;;;;;;15.22;100.00;98935.06;4437395;32;35410;-73
2022/09/26 06:07:39;;;;;;;;;;;;;;;15.46;100.00;98913.94;4446356;32;35266;-74
2022/09/26 06:10:26;;;;;;;;;;;;;;;14.93;100.00;98910.75;4448050;32;34990;-73
2022/09/26 06:13:14;;;;;;;;;;;;;;;14.48;100.00;98900.94;4433959;32;34748;-73
2022/09/26 06:16:04;;;;;;;;;;;;;;;14.31;100.00;98908.38;4439646;32;35004;-73
2022/09/26 06:18:51;;;;;;;;;;;;;;;14.50;100.00;98901.38;4425783;32;35275;-73
2022/09/26 06:21:39;;;;;;;;;;;;;;;14.08;100.00;98905.41;4435068;32;34762;-74
2022/09/26 06:24:26;;;;;;;;;;;;;;;14.94;100.00;98904.88;4447932;32;34082;-73
2022/09/26 06:27:12;;;;;;;;;;;;;;;15.27;100.00;98904.44;4436700;32;34872;-73
2022/09/26 06:29:58;;;;;;;;;;;;;;;15.78;100.00;98905.56;4437685;32;36210;-74
2022/09/26 06:32:45;;;;;;;;;;;;;;;15.81;100.00;98907.59;4447245;32;34961;-74
2022/09/26 06:35:32;;;;;;;;;;;;;;;15.05;100.00;98921.66;4434336;32;33527;-76
2022/09/26 06:38:18;;;;;;;;;;;;;;;15.27;100.00;98917.44;4432785;32;35839;-76
2022/09/26 06:41:06;;;;;;;;;;;;;;;15.16;100.00;98917.19;4432586;32;35508;-76
2022/09/26 06:43:52;;;;;;;;;;;;;;;14.46;100.00;98919.78;4432121;32;34580;-76
2022/09/26 06:46:39;;;;;;;;;;;;;;;14.04;100.00;98923.00;4432683;32;34244;-76
2022/09/26 06:49:26;;;;;;;;;;;;;;;14.86;100.00;98927.94;4423547;32;34855;-76
2022/09/26 06:52:12;;;;;;;;;;;;;;;15.27;100.00;98928.50;4423023;32;35686;-75
2022/09/26 06:54:59;;;;;;;;;;;;;;;15.41;100.00;98916.97;4422736;32;34741;-76
2022/09/26 06:57:46;;;;;;;;;;;;;;;15.60;100.00;98913.44;4413133;32;34848;-76
2022/09/26 07:00:32;;;;;;;;;;;;;;;14.99;100.00;98925.84;4431893;32;35331;-77
2022/09/26 07:03:18;;;;;;;;;;;;;;;14.43;100.00;98912.22;4431514;32;36851;-76
2022/09/26 07:06:04;;;;;;;;;;;;;;;13.83;100.00;98913.00;4422830;32;35155;-77
2022/09/26 07:08:50;;;;;;;;;;;;;;;14.36;100.00;98912.84;4431363;32;32543;-76
2022/09/26 07:11:48;;;;;;;;;;;;;;;13.76;100.00;98915.53;4412410;32;34898;-76
2022/09/26 07:14:55;;;;;;;;;;;;;;;14.42;100.00;98910.63;4425920;32;35204;-76
2022/09/26 07:17:43;;;;;;;;;;;;;;;15.00;100.00;98919.19;4410805;32;34733;-76
2022/09/26 07:20:31;;;;;;;;;;;;;;;15.37;100.00;98916.06;4424196;32;33358;-76
2022/09/26 07:23:17;;;;;;;;;;;;;;;15.20;100.00;98915.34;4424368;32;34207;-75
2022/09/26 07:26:03;;;;;;;;;;;;;;;15.33;100.00;98910.47;4426206;32;34814;-76
2022/09/26 07:28:49;;;;;;;;;;;;;;;14.71;100.00;98917.69;4434884;32;34323;-76
2022/09/26 07:31:41;;;;;;;;;;;;;;;15.46;100.00;98922.22;4433707;32;33609;-76
2022/09/26 07:34:28;;;;;;;;;;;;;;;15.03;100.00;98929.53;4425066;32;34390;-77
2022/09/26 07:37:16;;;;;;;;;;;;;;;14.68;100.00;98944.00;4434008;32;37132;-77
2022/09/26 07:40:02;;;;;;;;;;;;;;;14.18;100.00;98937.16;4433994;32;34637;-77
2022/09/26 07:42:51;;;;;;;;;;;;;;;14.05;100.00;98939.16;4424802;32;34320;-77
2022/09/26 07:52:10;;;;;;;;;;;;;;;14.97;100.00;98955.75;4436675;32;34971;-77
2022/09/26 07:54:58;;;;;;;;;;;;;;;14.76;100.00;98964.31;4435622;32;35774;-77
2022/09/26 07:57:48;;;;;;;;;;;;;;;14.01;100.00;98968.56;4438326;32;34384;-77
2022/09/26 08:00:36;;;;;;;;;;;;;;;14.38;100.00;98963.69;4425220;32;33703;-77
2022/09/26 08:03:26;;;;;;;;;;;;;;;14.45;100.00;98949.28;4434731;32;35177;-77
2022/09/26 08:06:13;;;;;;;;;;;;;;;13.82;100.00;98958.19;4417465;32;33395;-76
2022/09/26 08:09:00;;;;;;;;;;;;;;;13.38;100.00;98954.53;4425556;32;35819;-77
2022/09/26 08:12:01;;;;;;;;;;;;;;;13.74;100.00;98942.59;4426774;32;36059;-76
2022/09/26 08:14:48;;;;;;;;;;;;;;;14.00;100.00;98949.63;4425469;32;34755;-77
2022/09/26 08:17:34;;;;;;;;;;;;;;;13.36;100.00;98949.34;4425825;32;33086;-75
2022/09/26 08:20:20;;;;;;;;;;;;;;;13.55;100.00;98953.44;4423817;32;36785;-77
2022/09/26 08:23:06;;;;;;;;;;;;;;;14.30;100.00;98959.16;4428521;32;36834;-77
2022/09/26 08:25:52;;;;;;;;;;;;;;;13.61;100.00;98961.12;4436517;32;35943;-77
2022/09/26 08:28:38;;;;;;;;;;;;;;;13.13;100.00;98951.75;4436786;32;34184;-76
2022/09/26 08:31:25;;;;;;;;;;;;;;;13.46;100.00;98945.31;4436896;32;34977;-76
2022/09/26 08:34:12;;;;;;;;;;;;;;;13.76;100.00;98958.78;4425069;32;35172;-76
2022/09/26 08:36:59;;;;;;;;;;;;;;;13.80;100.00;98957.72;4435989;32;36041;-76
2022/09/26 08:39:45;;;;;;;;;;;;;;;13.55;100.00;98967.19;4425436;32;34344;-76
2022/09/26 08:42:36;;;;;;;;;;;;;;;13.89;100.00;98960.38;4423451;32;34690;-75
2022/09/26 08:48:38;;;;;;;;;;;;;;;13.63;100.00;98966.25;4436861;32;34993;-75
2022/09/26 08:51:34;;;;;;;;;;;;;;;13.92;100.00;98973.44;4436705;32;34871;-74
2022/09/26 08:54:41;;;;;;;;;;;;;;;14.55;100.00;98962.59;4424711;32;35730;-76
2022/09/26 08:57:35;;;;;;;;;;;;;;;14.73;100.00;98962.25;4436173;32;35622;-76
2022/09/26 09:00:23;;;;;;;;;;;;;;;14.84;100.00;98955.06;4431140;32;34341;-75
2022/09/26 09:03:10;;;;;;;;;;;;;;;14.87;100.00;98961.81;4432137;32;33558;-76
2022/09/26 09:06:06;;;;;;;;;;;;;;;15.40;100.00;98971.37;4435086;32;35040;-75
2022/09/26 09:08:54;;;;;;;;;;;;;;;15.27;100.00;98978.97;4417791;32;34668;-75
2022/09/26 09:11:48;;;;;;;;;;;;;;;14.94;100.00;98970.25;4424781;32;34963;-76
2022/09/26 09:14:45;;;;;;;;;;;;;;;15.11;100.00;98974.63;4435736;32;34010;-76
2022/09/26 09:18:11;;;;;;;;;;;;;;;14.72;100.00;98966.97;4430935;32;35563;-76
2022/09/26 09:21:01;;;;;;;;;;;;;;;14.97;100.00;98975.06;4429972;32;35167;-76
2022/09/26 09:23:57;;;;;;;;;;;;;;;14.45;100.00;98963.06;4405512;32;34041;-77
2022/09/26 09:26:52;;;;;;;;;;;;;;;14.96;100.00;98962.44;4436198;32;34558;-76
2022/09/26 09:30:22;;;;;;;;;;;;;;;15.40;100.00;98970.59;4447697;32;34690;-76
2022/09/26 09:33:12;;;;;;;;;;;;;;;15.09;100.00;98960.41;4447720;32;35254;-77
2022/09/26 09:36:05;;;;;;;;;;;;;;;15.80;100.00;98955.72;4447783;32;35120;-75
2022/09/26 09:38:52;;;;;;;;;;;;;;;14.95;100.00;98950.59;4426354;32;35556;-77
2022/09/26 09:41:42;;;;;;;11.52;7.70;;;;;;;16.00;100.00;98949.03;4437172;32;34894;-76
2022/09/26 09:44:46;;;;;;;12.18;7.68;;;;;;;15.59;100.00;98940.22;4436660;32;35922;-76
2022/09/26 09:47:35;;;;;;;;;;;;;;;16.33;100.00;98939.38;4448719;32;34339;-75
2022/09/26 09:50:21;;;;;;;;;;;;;;;14.92;100.00;98943.03;4449624;32;34098;-76
2022/09/26 09:53:07;;;;;;;;;;;;;;;15.45;100.00;98926.94;4448900;32;34822;-77
2022/09/26 09:56:04;;;;;;;;;;;;;;;15.48;100.00;98930.91;4449352;32;36111;-75
2022/09/26 09:59:06;;;;;;;;;;;;;;;15.91;100.00;98929.13;4449535;32;34935;-76
2022/09/26 10:01:59;;;;;;;;;;;;;;;15.20;100.00;98937.41;4449327;32;32976;-76
2022/09/26 10:04:47;;;;;;;;;;;;;;;15.08;100.00;98929.22;4437791;32;34960;-76
2022/09/26 10:07:34;;;;;;;;;;;;;;;15.99;100.00;98919.78;4437680;32;35183;-76
2022/09/26 10:10:24;;;;;;;;;;;;;;;16.14;100.00;98924.44;4437313;32;35715;-76
2022/09/26 10:13:12;;;;;;;;;;;;;;;16.39;100.00;98918.56;4426838;32;34577;-76
2022/09/26 10:16:05;;;;;;;;;;;;;;;17.06;100.00;98916.16;4436016;32;35926;-75
2022/09/26 10:18:54;;;;;;;11.18;7.03;;;;;;;16.91;100.00;98919.09;4426568;32;34765;-75
2022/09/26 10:21:47;;;;;;;;;;;;;;;16.53;100.00;98927.09;4436847;32;34146;-76
2022/09/26 10:24:37;;;;;;;;;;;;;;;15.83;100.00;98935.66;4449186;32;33730;-78
2022/09/26 10:27:33;;;;;;;;;;;;;;;16.30;100.00;98935.38;4424808;32;35367;-77
2022/09/26 10:30:24;;;;;;;;;;;;;;;16.51;100.00;98932.22;4436699;32;35276;-77
2022/09/26 10:33:21;;;;;;;;;;;;;;;16.91;100.00;98924.63;4437833;32;35169;-77
2022/09/26 10:36:16;;;;;;;;;;;;;;;17.40;100.00;98934.87;4437262;32;33759;-78
2022/09/26 10:42:15;;;;;;;;;;;;;;;16.76;100.00;98942.91;4439612;32;35224;-77
2022/09/26 10:45:01;;;;;;;;;;;;;;;16.42;100.00;98949.06;4449003;32;35716;-77
2022/09/26 10:47:49;;;;;;;;;;;;;;;16.38;100.00;98939.88;4437249;32;34103;-78
2022/09/26 10:50:38;;;;;;;;;;;;;;;16.50;100.00;98927.84;4438440;32;34466;-78
2022/09/26 10:53:30;;;;;;;;;;;;;;;16.62;100.00;98932.41;4439368;32;35706;-78
2022/09/26 10:56:19;;;;;;;;;;;;;;;17.30;100.00;98936.28;4439336;32;34899;-79
2022/09/26 10:59:08;;;;;;;;;;;;;;;17.62;100.00;98949.81;4441231;32;34145;-78
2022/09/26 11:01:57;;;;;;;;;;;;;;;17.07;97.29;98948.19;4429480;32;35667;-79
2022/09/26 11:07:51;;;;;;;;;;;;;;;16.10;100.00;98945.66;4435751;32;34954;-77
2022/09/26 11:10:40;;;;;;;;;;;;;;;16.54;100.00;98942.56;4439011;32;34855;-79
2022/09/26 11:13:28;;;;;;;;;;;;;;;17.00;100.00;98944.53;4428721;32;35255;-79
2022/09/26 11:16:18;;;;;;;;;;;;;;;17.44;100.00;98949.53;4438539;32;35229;-79
2022/09/26 11:19:15;;;;;;;;;;;;;;;16.72;100.00;98958.66;4449442;32;34481;-79
2022/09/26 11:22:01;;;;;;;;;;;;;;;17.63;100.00;98948.63;4427873;32;34165;-79
2022/09/26 11:25:12;;;;;;;;;;;;;;;17.68;99.83;98951.09;4450761;32;35790;-78
2022/09/26 11:27:57;;;;;;;;;;;;;;;17.89;96.25;98937.53;4450831;32;35256;-78
2022/09/26 11:30:47;;;;;;;;;;;;;;;17.05;98.12;98941.47;4450653;32;35709;-78
2022/09/26 11:33:33;;;;;;;;;;;;;;;17.64;98.30;98944.69;4438884;32;35199;-78
2022/09/26 11:36:34;;;;;;;;;;;;;;;17.35;96.61;98935.19;4438480;32;35335;-78
2022/09/26 11:39:41;;;;;;;;;;;;;;;17.43;99.19;98932.13;4450708;32;35203;-79
2022/09/26 11:42:30;;;;;;;;;;;;;;;18.50;91.83;98921.56;4450044;32;35774;-78
2022/09/26 11:45:32;;;;;;;;;;;;;;;18.48;89.75;98931.44;4450534;32;34048;-78
2022/09/26 11:48:59;;;;;;;;;;;;;;;18.31;92.61;98939.19;4432821;32;35737;-77
2022/09/26 11:51:59;;;;;;;;;;;;;;;18.81;91.70;98928.63;4434394;32;36130;-78
2022/09/26 11:55:05;;;;;;;;;;;;;;;18.01;94.96;98935.69;4430172;32;34676;-78
2022/09/26 11:57:57;;;;;;;;;;;;;;;17.98;96.55;98940.78;4450541;32;33868;-79
2022/09/26 12:00:59;;;;;;;;;;;;;;;18.58;90.89;98933.50;4428178;32;35286;-80
2022/09/26 12:03:48;;;;;;;;;;;;;;;18.13;92.30;98930.69;4423589;32;34969;-79
2022/09/26 12:06:50;;;;;;;;;;;;;;;18.43;90.59;98925.06;4438280;32;36410;-80
2022/09/26 12:09:56;;;;;;;;;;;;;;;18.53;94.98;98925.56;4437846;32;34636;-80
2022/09/26 12:12:47;;;;;;;;;;;;;;;18.63;94.55;98913.75;4450397;32;35657;-79
2022/09/26 12:15:53;;;;;;;;;;;;;;;19.19;87.14;98903.53;4437585;32;35186;-79
2022/09/26 12:18:49;;;;;;;;;;;;;;;18.81;90.06;98900.88;4439073;32;34915;-77
2022/09/26 12:21:34;;;;;;;;;;;;;;;18.07;91.72;98904.50;4436931;32;34168;-78
2022/09/26 12:24:23;;;;;;;;;;;;;;;17.61;95.03;98884.50;4450185;32;34518;-77
2022/09/26 12:27:16;;;;;;;;;;;;;;;18.24;91.07;98894.75;4438317;32;34885;-79
2022/09/26 12:30:13;;;;;;;;;;;;;;;17.94;93.77;98890.06;4438200;32;36023;-78
2022/09/26 12:33:22;;;;;;;;;;;;;;;17.97;93.12;98885.75;4434126;32;34286;-79
2022/09/26 12:36:27;;;;;;;;;;;;;;;18.22;93.20;98874.94;4450309;32;35294;-79
2022/09/26 12:39:32;;;;;;;8.57;5.57;;;;;;;18.14;90.65;98881.59;4449229;32;36190;-79
2022/09/26 12:42:41;;;;;;;5.87;4.03;;;;;;;18.78;88.93;98873.06;4449587;32;34139;-79
2022/09/26 12:45:41;;;;;;;8.57;3.90;;;;;;;19.22;87.67;98886.88;4437753;32;33689;-78
2022/09/26 12:48:46;;;;;;;6.97;4.80;;;;;;;19.48;89.30;98877.50;4422815;32;34752;-79
2022/09/26 12:51:38;;;;;;;7.65;5.22;;;;;;;19.79;83.57;98871.72;4448359;32;33648;-79
2022/09/26 12:54:43;;;;;;;7.37;5.10;;;;;;;19.93;83.82;98863.41;4436257;32;33778;-80
2022/09/26 12:57:37;;;;;;;9.27;6.37;;;;;;;19.70;86.44;98855.41;4425921;32;34134;-78
2022/09/26 13:00:24;;;;;;;6.60;5.40;;;;;;;18.16;92.86;98866.16;4448353;32;33762;-79
2022/09/26 13:03:35;;;;;;;7.67;5.23;;;;;;;18.95;93.10;98858.53;4436488;32;34726;-78
2022/09/26 13:06:51;;;;;;;7.35;4.60;;;;;;;18.93;93.60;98857.34;4436428;32;34731;-79
2022/09/26 13:10:16;;;;;;;;;;;;;;;19.82;86.00;98865.37;4450023;32;33677;-79
2022/09/26 13:13:02;;;;;;;;;;;;;;;19.75;82.22;98868.91;4439543;32;34393;-79
2022/09/26 13:16:11;;;;;;;;;;;;;;;19.62;80.68;98865.66;4449862;32;35311;-78
2022/09/26 13:19:09;;;;;;;;;;;;;;;20.27;80.77;98860.31;4449928;32;34801;-78
2022/09/26 13:21:58;;;;;;;;;;;;;;;20.52;78.23;98863.94;4427509;32;34460;-78
2022/09/26 13:24:52;;;;;;;;;;;;;;;19.12;84.14;98865.37;4449908;32;34525;-78
2022/09/26 13:28:03;;;;;;;;;;;;;;;18.94;83.49;98870.03;4449579;32;35261;-79
2022/09/26 13:30:52;;;;;;;;;;;;;;;18.53;85.62;98861.75;4448891;32;33840;-77
2022/09/26 13:33:47;;;;;;;;;;;;;;;19.05;84.81;98859.78;4438030;32;34315;-78
2022/09/26 13:36:41;;;;;;;;;;;;;;;18.11;86.64;98857.41;4438252;32;35638;-78
2022/09/26 13:39:32;;;;;;;;;;;;;;;18.62;87.76;98865.00;4425356;32;34649;-78
2022/09/26 13:42:19;;;;;;;;;;;;;;;19.03;84.38;98864.94;4437968;32;34878;-79
2022/09/26 13:45:18;;;;;;;;;;;;;;;19.11;87.29;98874.91;4432217;32;34893;-79
2022/09/26 13:48:08;;;;;;;;;;;;;;;20.00;79.33;98869.00;4419576;32;34618;-78
2022/09/26 13:50:54;;;;;;;;;;;;;;;19.32;83.47;98863.13;4437508;32;35798;-79
2022/09/26 13:53:52;;;;;;;;;;;;;;;20.20;79.60;98880.56;4424402;32;35712;-78
2022/09/26 13:56:40;;;;;;;;;;;;;;;19.23;83.95;98862.66;4422577;32;34762;-79
2022/09/26 13:59:33;;;;;;;;;;;;;;;19.60;81.33;98851.34;4433379;32;34777;-79
2022/09/26 14:02:23;;;;;;;;;;;;;;;18.83;84.63;98837.44;4437873;32;35294;-79
2022/09/26 14:05:18;;;;;;;;;;;;;;;19.08;85.02;98842.37;4437238;32;34900;-78
2022/09/26 14:11:43;;;;;;;;;;;;;;;19.63;85.07;98853.34;4438718;32;34844;-76
2022/09/26 14:14:43;;;;;;;;;;;;;;;18.34;86.52;98852.47;4450988;32;35309;-76
2022/09/26 14:17:41;;;;;;;;;;;;;;;18.61;84.91;98842.00;4438889;32;34890;-76
2022/09/26 14:20:28;;;;;;;;;;;;;;;19.36;81.01;98836.16;4450958;32;34825;-76
2022/09/26 14:23:33;;;;;;;;;;;;;;;20.20;81.28;98822.94;4439076;32;34964;-75
2022/09/26 14:26:20;;;;;;;;;;;;;;;20.48;75.93;98821.38;4453703;32;36179;-76
2022/09/26 14:29:43;;;;;;;;;;;;;;;18.91;84.05;98818.84;4441659;32;35147;-76
2022/09/26 14:32:40;;;;;;;;;;;;;;;18.85;84.80;98810.09;4394341;32;34192;-76
2022/09/26 14:35:30;;;;;;;;;;;;;;;19.36;81.76;98805.63;4440834;32;34833;-76
2022/09/26 14:38:16;;;;;;;;;;;;;;;18.97;83.58;98810.97;4429923;32;36211;-79
2022/09/26 14:41:02;;;;;;;;;;;;;;;19.38;81.25;98805.22;4438541;32;34891;-79
2022/09/26 14:43:48;;;;;;;;;;;;;;;19.16;83.85;98816.22;4438518;32;34145;-79
2022/09/26 14:46:35;;;;;;;;;;;;;;;19.24;84.42;98805.94;4439305;32;34901;-79
2022/09/26 14:49:23;;;;;;;;;;;;;;;19.18;83.79;98813.88;4439016;32;35199;-79
2022/09/26 14:52:18;;;;;;;;;;;;;;;20.39;80.36;98796.72;4440143;32;35788;-79
2022/09/26 14:55:05;;;;;;;;;;;;;;;20.58;79.00;98803.94;4435717;32;34122;-78
2022/09/26 14:57:52;;;;;;;;;;;;;;;19.72;80.89;98809.34;4436273;32;34431;-74
2022/09/26 15:00:39;;;;;;;;;;;;;;;18.83;86.92;98809.69;4439026;32;35205;-73
2022/09/26 15:03:25;;;;;;;;;;;;;;;19.28;87.68;98802.00;4439376;32;35739;-73
2022/09/26 15:06:11;;;;;;;;;;;;;;;19.89;84.41;98807.00;4438983;32;34736;-73